sensor_id;sensor_type;location;lat;lon;timestamp;P1;durP1;ratioP1;P2;durP2;ratioP2
7807;SDS011;3949;49.254;8.894;2022-07-29T00:00:38;4.40;;;4.00;;
7807;SDS011;3949;49.254;8.894;2022-07-29T00:03:04;3.30;;;3.10;;
7807;SDS011;3949;49.254;8.894;2022-07-29T00:05:30;4.07;;;3.77;;
7807;SDS011;3949;49.254;8.894;2022-07-29T00:07:56;4.60;;;3.50;;
7807;SDS011;3949;49.254;8.894;2022-07-29T00:10:22;4.07;;;3.77;;
7807;SDS011;3949;49.254;8.894;2022-07-29T00:12:48;4.33;;;3.40;;
7807;SDS011;3949;49.254;8.894;2022-07-29T00:15:14;4.10;;;3.20;;
7807;SDS011;3949;49.254;8.894;2022-07-29T00:17:40;3.80;;;3.50;;
7807;SDS011;3949;49.254;8.894;2022-07-29T00:20:06;4.33;;;3.30;;
7807;SDS011;3949;49.254;8.894;2022-07-29T00:22:32;3.73;;;3.43;;
7807;SDS011;3949;49.254;8.894;2022-07-29T00:24:58;5.23;;;4.20;;
7807;SDS011;3949;49.254;8.894;2022-07-29T00:27:24;4.97;;;3.90;;
7807;SDS011;3949;49.254;8.894;2022-07-29T00:29:50;4.00;;;3.70;;
7807;SDS011;3949;49.254;8.894;2022-07-29T00:32:16;4.00;;;3.70;;
7807;SDS011;3949;49.254;8.894;2022-07-29T00:34:42;4.10;;;3.70;;
7807;SDS011;3949;49.254;8.894;2022-07-29T00:37:27;3.67;;;3.30;;
7807;SDS011;3949;49.254;8.894;2022-07-29T00:39:53;4.40;;;4.00;;
7807;SDS011;3949;49.254;8.894;2022-07-29T00:42:19;6.80;;;4.20;;
7807;SDS011;3949;49.254;8.894;2022-07-29T00:44:45;4.27;;;3.87;;
7807;SDS011;3949;49.254;8.894;2022-07-29T00:47:11;4.27;;;3.87;;
7807;SDS011;3949;49.254;8.894;2022-07-29T00:49:38;4.93;;;4.00;;
7807;SDS011;3949;49.254;8.894;2022-07-29T00:52:05;4.30;;;3.90;;
7807;SDS011;3949;49.254;8.894;2022-07-29T00:54:31;4.57;;;3.70;;
7807;SDS011;3949;49.254;8.894;2022-07-29T00:56:58;3.93;;;3.63;;
7807;SDS011;3949;49.254;8.894;2022-07-29T00:59:25;4.23;;;3.83;;
7807;SDS011;3949;49.254;8.894;2022-07-29T01:01:51;4.03;;;3.73;;
7807;SDS011;3949;49.254;8.894;2022-07-29T01:04:18;5.37;;;4.03;;
7807;SDS011;3949;49.254;8.894;2022-07-29T01:06:44;5.40;;;4.53;;
7807;SDS011;3949;49.254;8.894;2022-07-29T01:09:10;4.40;;;4.00;;
7807;SDS011;3949;49.254;8.894;2022-07-29T01:11:37;4.63;;;4.23;;
7807;SDS011;3949;49.254;8.894;2022-07-29T01:14:03;3.57;;;3.33;;
7807;SDS011;3949;49.254;8.894;2022-07-29T01:16:31;5.00;;;4.60;;
7807;SDS011;3949;49.254;8.894;2022-07-29T01:19:02;5.17;;;4.67;;
7807;SDS011;3949;49.254;8.894;2022-07-29T01:26:45;4.60;;;4.20;;
7807;SDS011;3949;49.254;8.894;2022-07-29T01:29:15;4.27;;;3.87;;
7807;SDS011;3949;49.254;8.894;2022-07-29T01:31:51;4.33;;;3.93;;
7807;SDS011;3949;49.254;8.894;2022-07-29T01:34:41;4.80;;;4.37;;
7807;SDS011;3949;49.254;8.894;2022-07-29T01:37:15;4.57;;;4.17;;
7807;SDS011;3949;49.254;8.894;2022-07-29T01:39:44;4.93;;;4.43;;
7807;SDS011;3949;49.254;8.894;2022-07-29T01:45:03;4.70;;;4.20;;
7807;SDS011;3949;49.254;8.894;2022-07-29T01:47:33;4.10;;;3.77;;
7807;SDS011;3949;49.254;8.894;2022-07-29T01:50:00;4.40;;;4.00;;
7807;SDS011;3949;49.254;8.894;2022-07-29T01:52:49;7.13;;;4.17;;
7807;SDS011;3949;49.254;8.894;2022-07-29T01:55:13;4.70;;;4.00;;
7807;SDS011;3949;49.254;8.894;2022-07-29T01:57:43;4.70;;;4.30;;
7807;SDS011;3949;49.254;8.894;2022-07-29T02:00:09;4.60;;;4.20;;
7807;SDS011;3949;49.254;8.894;2022-07-29T02:02:37;4.30;;;3.90;;
7807;SDS011;3949;49.254;8.894;2022-07-29T02:05:03;4.37;;;3.97;;
7807;SDS011;3949;49.254;8.894;2022-07-29T02:07:31;4.40;;;4.00;;
7807;SDS011;3949;49.254;8.894;2022-07-29T02:09:58;4.03;;;3.63;;
7807;SDS011;3949;49.254;8.894;2022-07-29T02:12:26;4.43;;;4.03;;
7807;SDS011;3949;49.254;8.894;2022-07-29T02:14:53;4.57;;;4.17;;
7807;SDS011;3949;49.254;8.894;2022-07-29T02:17:24;4.37;;;4.00;;
7807;SDS011;3949;49.254;8.894;2022-07-29T02:19:51;6.17;;;4.43;;
7807;SDS011;3949;49.254;8.894;2022-07-29T02:22:18;5.63;;;3.97;;
7807;SDS011;3949;49.254;8.894;2022-07-29T02:24:44;4.37;;;3.60;;
7807;SDS011;3949;49.254;8.894;2022-07-29T02:27:10;5.20;;;3.53;;
7807;SDS011;3949;49.254;8.894;2022-07-29T02:29:37;4.07;;;3.73;;
7807;SDS011;3949;49.254;8.894;2022-07-29T02:32:05;4.00;;;3.70;;
7807;SDS011;3949;49.254;8.894;2022-07-29T02:34:33;4.57;;;4.17;;
7807;SDS011;3949;49.254;8.894;2022-07-29T02:36:59;5.37;;;4.10;;
7807;SDS011;3949;49.254;8.894;2022-07-29T02:39:25;4.37;;;3.97;;
7807;SDS011;3949;49.254;8.894;2022-07-29T02:41:57;4.23;;;3.83;;
7807;SDS011;3949;49.254;8.894;2022-07-29T02:44:25;4.23;;;3.93;;
7807;SDS011;3949;49.254;8.894;2022-07-29T02:46:57;4.93;;;3.77;;
7807;SDS011;3949;49.254;8.894;2022-07-29T02:52:16;4.67;;;4.27;;
7807;SDS011;3949;49.254;8.894;2022-07-29T02:54:51;4.67;;;4.27;;
7807;SDS011;3949;49.254;8.894;2022-07-29T02:57:22;4.40;;;4.00;;
7807;SDS011;3949;49.254;8.894;2022-07-29T02:59:49;4.57;;;3.87;;
7807;SDS011;3949;49.254;8.894;2022-07-29T03:02:17;4.03;;;3.70;;
7807;SDS011;3949;49.254;8.894;2022-07-29T03:04:43;5.63;;;4.47;;
7807;SDS011;3949;49.254;8.894;2022-07-29T03:07:10;4.93;;;3.90;;
7807;SDS011;3949;49.254;8.894;2022-07-29T03:09:38;4.10;;;3.80;;
7807;SDS011;3949;49.254;8.894;2022-07-29T03:12:04;4.03;;;3.73;;
7807;SDS011;3949;49.254;8.894;2022-07-29T03:14:30;3.80;;;3.60;;
7807;SDS011;3949;49.254;8.894;2022-07-29T03:16:57;4.00;;;3.60;;
7807;SDS011;3949;49.254;8.894;2022-07-29T03:19:24;4.17;;;3.83;;
7807;SDS011;3949;49.254;8.894;2022-07-29T03:21:50;4.60;;;4.23;;
7807;SDS011;3949;49.254;8.894;2022-07-29T03:27:11;4.40;;;4.10;;
7807;SDS011;3949;49.254;8.894;2022-07-29T03:29:38;4.10;;;3.57;;
7807;SDS011;3949;49.254;8.894;2022-07-29T03:32:04;4.30;;;3.90;;
7807;SDS011;3949;49.254;8.894;2022-07-29T03:34:31;4.80;;;4.30;;
7807;SDS011;3949;49.254;8.894;2022-07-29T03:36:57;5.17;;;4.10;;
7807;SDS011;3949;49.254;8.894;2022-07-29T03:39:24;4.70;;;4.37;;
7807;SDS011;3949;49.254;8.894;2022-07-29T03:41:52;4.70;;;4.30;;
7807;SDS011;3949;49.254;8.894;2022-07-29T03:44:19;4.20;;;3.80;;
7807;SDS011;3949;49.254;8.894;2022-07-29T03:46:46;4.53;;;4.13;;
7807;SDS011;3949;49.254;8.894;2022-07-29T03:49:15;4.17;;;3.77;;
7807;SDS011;3949;49.254;8.894;2022-07-29T03:51:42;4.87;;;4.47;;
7807;SDS011;3949;49.254;8.894;2022-07-29T03:54:08;6.03;;;4.30;;
7807;SDS011;3949;49.254;8.894;2022-07-29T03:56:34;4.50;;;4.10;;
7807;SDS011;3949;49.254;8.894;2022-07-29T03:59:03;4.40;;;3.90;;
7807;SDS011;3949;49.254;8.894;2022-07-29T04:01:29;4.60;;;4.20;;
7807;SDS011;3949;49.254;8.894;2022-07-29T04:03:56;5.07;;;4.67;;
7807;SDS011;3949;49.254;8.894;2022-07-29T04:06:22;4.60;;;4.20;;
7807;SDS011;3949;49.254;8.894;2022-07-29T04:08:48;5.07;;;4.57;;
7807;SDS011;3949;49.254;8.894;2022-07-29T04:11:14;4.90;;;4.30;;
7807;SDS011;3949;49.254;8.894;2022-07-29T04:13:40;6.37;;;4.50;;
7807;SDS011;3949;49.254;8.894;2022-07-29T04:16:06;4.73;;;4.33;;
7807;SDS011;3949;49.254;8.894;2022-07-29T04:18:32;5.03;;;4.60;;
7807;SDS011;3949;49.254;8.894;2022-07-29T04:20:58;5.23;;;4.70;;
7807;SDS011;3949;49.254;8.894;2022-07-29T04:23:25;5.37;;;4.87;;
7807;SDS011;3949;49.254;8.894;2022-07-29T04:25:51;4.97;;;4.57;;
7807;SDS011;3949;49.254;8.894;2022-07-29T04:28:17;7.03;;;5.33;;
7807;SDS011;3949;49.254;8.894;2022-07-29T04:30:43;4.67;;;4.27;;
7807;SDS011;3949;49.254;8.894;2022-07-29T04:33:09;4.50;;;4.10;;
7807;SDS011;3949;49.254;8.894;2022-07-29T04:35:36;5.03;;;4.47;;
7807;SDS011;3949;49.254;8.894;2022-07-29T04:38:03;5.03;;;4.40;;
7807;SDS011;3949;49.254;8.894;2022-07-29T04:40:29;5.60;;;4.43;;
7807;SDS011;3949;49.254;8.894;2022-07-29T04:42:55;5.40;;;4.40;;
7807;SDS011;3949;49.254;8.894;2022-07-29T04:45:21;5.77;;;4.03;;
7807;SDS011;3949;49.254;8.894;2022-07-29T04:47:47;4.23;;;3.93;;
7807;SDS011;3949;49.254;8.894;2022-07-29T04:50:13;4.50;;;3.80;;
7807;SDS011;3949;49.254;8.894;2022-07-29T04:52:39;4.40;;;4.10;;
7807;SDS011;3949;49.254;8.894;2022-07-29T04:55:05;4.30;;;3.90;;
7807;SDS011;3949;49.254;8.894;2022-07-29T04:57:31;4.93;;;3.80;;
7807;SDS011;3949;49.254;8.894;2022-07-29T04:59:57;4.57;;;4.17;;
7807;SDS011;3949;49.254;8.894;2022-07-29T05:02:24;3.97;;;3.40;;
7807;SDS011;3949;49.254;8.894;2022-07-29T05:04:50;6.07;;;4.30;;
7807;SDS011;3949;49.254;8.894;2022-07-29T05:07:16;4.53;;;4.13;;
7807;SDS011;3949;49.254;8.894;2022-07-29T05:09:42;4.43;;;3.83;;
7807;SDS011;3949;49.254;8.894;2022-07-29T05:12:08;4.30;;;3.53;;
7807;SDS011;3949;49.254;8.894;2022-07-29T05:14:34;4.40;;;4.00;;
7807;SDS011;3949;49.254;8.894;2022-07-29T05:17:00;4.50;;;3.60;;
7807;SDS011;3949;49.254;8.894;2022-07-29T05:19:26;3.80;;;3.50;;
7807;SDS011;3949;49.254;8.894;2022-07-29T05:21:52;4.93;;;3.60;;
7807;SDS011;3949;49.254;8.894;2022-07-29T05:24:18;6.17;;;4.10;;
7807;SDS011;3949;49.254;8.894;2022-07-29T05:26:44;6.90;;;3.77;;
7807;SDS011;3949;49.254;8.894;2022-07-29T05:29:10;5.07;;;3.83;;
7807;SDS011;3949;49.254;8.894;2022-07-29T05:31:36;3.40;;;3.00;;
7807;SDS011;3949;49.254;8.894;2022-07-29T05:34:02;4.83;;;3.43;;
7807;SDS011;3949;49.254;8.894;2022-07-29T05:36:28;3.63;;;3.33;;
7807;SDS011;3949;49.254;8.894;2022-07-29T05:38:54;3.90;;;3.57;;
7807;SDS011;3949;49.254;8.894;2022-07-29T05:41:20;3.80;;;3.50;;
7807;SDS011;3949;49.254;8.894;2022-07-29T05:43:46;4.03;;;3.37;;
7807;SDS011;3949;49.254;8.894;2022-07-29T05:46:12;6.13;;;4.00;;
7807;SDS011;3949;49.254;8.894;2022-07-29T05:48:41;3.30;;;2.93;;
7807;SDS011;3949;49.254;8.894;2022-07-29T05:51:07;3.90;;;3.57;;
7807;SDS011;3949;49.254;8.894;2022-07-29T05:53:33;3.87;;;3.47;;
7807;SDS011;3949;49.254;8.894;2022-07-29T05:56:02;3.90;;;3.60;;
7807;SDS011;3949;49.254;8.894;2022-07-29T05:58:29;3.87;;;3.40;;
7807;SDS011;3949;49.254;8.894;2022-07-29T06:00:55;3.70;;;3.40;;
7807;SDS011;3949;49.254;8.894;2022-07-29T06:03:24;4.57;;;3.50;;
7807;SDS011;3949;49.254;8.894;2022-07-29T06:05:50;3.80;;;3.43;;
7807;SDS011;3949;49.254;8.894;2022-07-29T06:08:16;3.70;;;3.40;;
7807;SDS011;3949;49.254;8.894;2022-07-29T06:10:42;5.17;;;4.67;;
7807;SDS011;3949;49.254;8.894;2022-07-29T06:13:09;5.20;;;3.37;;
7807;SDS011;3949;49.254;8.894;2022-07-29T06:15:35;4.00;;;3.60;;
7807;SDS011;3949;49.254;8.894;2022-07-29T06:18:01;3.83;;;3.43;;
7807;SDS011;3949;49.254;8.894;2022-07-29T06:20:27;3.77;;;3.43;;
7807;SDS011;3949;49.254;8.894;2022-07-29T06:22:54;5.40;;;3.30;;
7807;SDS011;3949;49.254;8.894;2022-07-29T06:25:20;4.10;;;3.47;;
7807;SDS011;3949;49.254;8.894;2022-07-29T06:27:46;4.00;;;3.60;;
7807;SDS011;3949;49.254;8.894;2022-07-29T06:30:12;5.53;;;5.03;;
7807;SDS011;3949;49.254;8.894;2022-07-29T06:32:38;4.20;;;3.80;;
7807;SDS011;3949;49.254;8.894;2022-07-29T06:35:05;3.40;;;3.10;;
7807;SDS011;3949;49.254;8.894;2022-07-29T06:37:31;3.20;;;3.00;;
7807;SDS011;3949;49.254;8.894;2022-07-29T06:39:57;3.40;;;3.10;;
7807;SDS011;3949;49.254;8.894;2022-07-29T06:42:42;3.10;;;2.90;;
7807;SDS011;3949;49.254;8.894;2022-07-29T06:45:08;3.90;;;3.50;;
7807;SDS011;3949;49.254;8.894;2022-07-29T06:47:34;3.30;;;3.00;;
7807;SDS011;3949;49.254;8.894;2022-07-29T06:50:00;4.17;;;3.40;;
7807;SDS011;3949;49.254;8.894;2022-07-29T06:52:26;3.90;;;3.40;;
7807;SDS011;3949;49.254;8.894;2022-07-29T06:54:52;3.80;;;3.17;;
7807;SDS011;3949;49.254;8.894;2022-07-29T06:57:19;3.70;;;3.10;;
7807;SDS011;3949;49.254;8.894;2022-07-29T06:59:46;3.83;;;3.23;;
7807;SDS011;3949;49.254;8.894;2022-07-29T07:02:12;3.30;;;3.00;;
7807;SDS011;3949;49.254;8.894;2022-07-29T07:04:38;3.30;;;3.10;;
7807;SDS011;3949;49.254;8.894;2022-07-29T07:07:04;3.23;;;3.00;;
7807;SDS011;3949;49.254;8.894;2022-07-29T07:09:30;3.43;;;3.10;;
7807;SDS011;3949;49.254;8.894;2022-07-29T07:11:56;3.57;;;3.27;;
7807;SDS011;3949;49.254;8.894;2022-07-29T07:14:22;3.30;;;3.00;;
7807;SDS011;3949;49.254;8.894;2022-07-29T07:16:48;4.77;;;3.50;;
7807;SDS011;3949;49.254;8.894;2022-07-29T07:19:14;5.00;;;3.10;;
7807;SDS011;3949;49.254;8.894;2022-07-29T07:21:40;3.73;;;3.43;;
7807;SDS011;3949;49.254;8.894;2022-07-29T07:24:06;4.20;;;3.80;;
7807;SDS011;3949;49.254;8.894;2022-07-29T07:26:32;4.03;;;3.63;;
7807;SDS011;3949;49.254;8.894;2022-07-29T07:28:58;3.90;;;3.60;;
7807;SDS011;3949;49.254;8.894;2022-07-29T07:31:25;3.80;;;3.50;;
7807;SDS011;3949;49.254;8.894;2022-07-29T07:33:51;4.30;;;3.87;;
7807;SDS011;3949;49.254;8.894;2022-07-29T07:36:18;3.80;;;3.50;;
7807;SDS011;3949;49.254;8.894;2022-07-29T07:38:44;5.27;;;4.20;;
7807;SDS011;3949;49.254;8.894;2022-07-29T07:41:10;4.23;;;3.43;;
7807;SDS011;3949;49.254;8.894;2022-07-29T07:43:36;3.73;;;3.33;;
7807;SDS011;3949;49.254;8.894;2022-07-29T07:46:02;5.77;;;3.60;;
7807;SDS011;3949;49.254;8.894;2022-07-29T07:48:28;4.93;;;3.30;;
7807;SDS011;3949;49.254;8.894;2022-07-29T07:50:54;4.23;;;3.73;;
7807;SDS011;3949;49.254;8.894;2022-07-29T07:53:21;4.00;;;3.50;;
7807;SDS011;3949;49.254;8.894;2022-07-29T07:55:47;5.07;;;4.57;;
7807;SDS011;3949;49.254;8.894;2022-07-29T07:58:13;4.43;;;3.97;;
7807;SDS011;3949;49.254;8.894;2022-07-29T08:00:39;4.10;;;3.70;;
7807;SDS011;3949;49.254;8.894;2022-07-29T08:03:05;4.10;;;3.43;;
7807;SDS011;3949;49.254;8.894;2022-07-29T08:05:31;3.60;;;3.30;;
7807;SDS011;3949;49.254;8.894;2022-07-29T08:07:57;4.87;;;3.63;;
7807;SDS011;3949;49.254;8.894;2022-07-29T08:10:23;4.77;;;3.50;;
7807;SDS011;3949;49.254;8.894;2022-07-29T08:13:08;6.10;;;3.77;;
7807;SDS011;3949;49.254;8.894;2022-07-29T08:15:36;3.70;;;3.40;;
7807;SDS011;3949;49.254;8.894;2022-07-29T08:18:04;3.40;;;3.20;;
7807;SDS011;3949;49.254;8.894;2022-07-29T08:20:30;4.07;;;3.67;;
7807;SDS011;3949;49.254;8.894;2022-07-29T08:22:58;6.20;;;3.70;;
7807;SDS011;3949;49.254;8.894;2022-07-29T08:25:24;6.13;;;4.20;;
7807;SDS011;3949;49.254;8.894;2022-07-29T08:27:50;4.07;;;3.60;;
7807;SDS011;3949;49.254;8.894;2022-07-29T08:30:16;4.40;;;3.40;;
7807;SDS011;3949;49.254;8.894;2022-07-29T08:32:42;7.63;;;3.97;;
7807;SDS011;3949;49.254;8.894;2022-07-29T08:35:08;4.43;;;3.90;;
7807;SDS011;3949;49.254;8.894;2022-07-29T08:37:34;4.03;;;3.63;;
7807;SDS011;3949;49.254;8.894;2022-07-29T08:40:00;4.13;;;3.83;;
7807;SDS011;3949;49.254;8.894;2022-07-29T08:42:26;4.43;;;4.13;;
7807;SDS011;3949;49.254;8.894;2022-07-29T08:44:52;4.47;;;4.07;;
7807;SDS011;3949;49.254;8.894;2022-07-29T08:47:19;5.20;;;3.50;;
7807;SDS011;3949;49.254;8.894;2022-07-29T08:49:45;3.85;;;3.53;;
7807;SDS011;3949;49.254;8.894;2022-07-29T08:52:13;3.50;;;3.20;;
7807;SDS011;3949;49.254;8.894;2022-07-29T08:54:40;4.80;;;3.80;;
7807;SDS011;3949;49.254;8.894;2022-07-29T08:57:09;4.72;;;4.30;;
7807;SDS011;3949;49.254;8.894;2022-07-29T08:59:36;4.03;;;3.72;;
7807;SDS011;3949;49.254;8.894;2022-07-29T09:02:03;4.20;;;3.80;;
7807;SDS011;3949;49.254;8.894;2022-07-29T09:04:30;3.63;;;3.33;;
7807;SDS011;3949;49.254;8.894;2022-07-29T09:07:00;7.22;;;5.28;;
7807;SDS011;3949;49.254;8.894;2022-07-29T09:09:28;4.63;;;4.22;;
7807;SDS011;3949;49.254;8.894;2022-07-29T09:11:54;4.50;;;3.95;;
7807;SDS011;3949;49.254;8.894;2022-07-29T09:14:20;3.92;;;3.63;;
7807;SDS011;3949;49.254;8.894;2022-07-29T09:16:53;3.97;;;3.58;;
7807;SDS011;3949;49.254;8.894;2022-07-29T09:19:20;3.75;;;3.45;;
7807;SDS011;3949;49.254;8.894;2022-07-29T09:21:46;4.15;;;3.65;;
7807;SDS011;3949;49.254;8.894;2022-07-29T09:24:38;4.38;;;3.55;;
7807;SDS011;3949;49.254;8.894;2022-07-29T09:27:08;4.85;;;3.47;;
7807;SDS011;3949;49.254;8.894;2022-07-29T09:29:34;4.05;;;3.60;;
7807;SDS011;3949;49.254;8.894;2022-07-29T09:32:01;4.43;;;3.75;;
7807;SDS011;3949;49.254;8.894;2022-07-29T09:34:31;5.60;;;4.13;;
7807;SDS011;3949;49.254;8.894;2022-07-29T09:36:57;5.75;;;3.95;;
7807;SDS011;3949;49.254;8.894;2022-07-29T09:39:41;3.83;;;3.60;;
7807;SDS011;3949;49.254;8.894;2022-07-29T09:42:11;3.80;;;3.60;;
7807;SDS011;3949;49.254;8.894;2022-07-29T09:44:41;4.68;;;3.70;;
7807;SDS011;3949;49.254;8.894;2022-07-29T09:47:07;4.05;;;3.47;;
7807;SDS011;3949;49.254;8.894;2022-07-29T09:49:34;4.28;;;3.95;;
7807;SDS011;3949;49.254;8.894;2022-07-29T09:54:27;4.75;;;4.35;;
7807;SDS011;3949;49.254;8.894;2022-07-29T09:56:53;4.40;;;4.00;;
7807;SDS011;3949;49.254;8.894;2022-07-29T09:59:20;5.07;;;4.40;;
7807;SDS011;3949;49.254;8.894;2022-07-29T10:01:49;5.07;;;4.18;;
7807;SDS011;3949;49.254;8.894;2022-07-29T10:04:15;3.85;;;3.45;;
7807;SDS011;3949;49.254;8.894;2022-07-29T10:07:00;4.50;;;4.13;;
7807;SDS011;3949;49.254;8.894;2022-07-29T10:09:27;4.22;;;3.60;;
7807;SDS011;3949;49.254;8.894;2022-07-29T10:12:03;4.75;;;4.30;;
7807;SDS011;3949;49.254;8.894;2022-07-29T10:14:30;4.88;;;4.47;;
7807;SDS011;3949;49.254;8.894;2022-07-29T10:16:57;3.95;;;3.60;;
7807;SDS011;3949;49.254;8.894;2022-07-29T10:19:23;3.40;;;3.17;;
7807;SDS011;3949;49.254;8.894;2022-07-29T10:21:50;4.00;;;3.60;;
7807;SDS011;3949;49.254;8.894;2022-07-29T10:24:16;4.85;;;4.35;;
7807;SDS011;3949;49.254;8.894;2022-07-29T10:26:42;3.65;;;3.35;;
7807;SDS011;3949;49.254;8.894;2022-07-29T10:29:09;3.83;;;3.50;;
7807;SDS011;3949;49.254;8.894;2022-07-29T10:31:57;3.90;;;3.60;;
7807;SDS011;3949;49.254;8.894;2022-07-29T10:34:44;4.00;;;3.38;;
7807;SDS011;3949;49.254;8.894;2022-07-29T10:42:54;4.70;;;3.92;;
7807;SDS011;3949;49.254;8.894;2022-07-29T10:45:21;3.95;;;3.53;;
7807;SDS011;3949;49.254;8.894;2022-07-29T10:47:47;3.47;;;3.17;;
7807;SDS011;3949;49.254;8.894;2022-07-29T10:50:13;4.25;;;3.45;;
7807;SDS011;3949;49.254;8.894;2022-07-29T10:52:52;5.65;;;3.65;;
7807;SDS011;3949;49.254;8.894;2022-07-29T10:58:12;4.80;;;3.65;;
7807;SDS011;3949;49.254;8.894;2022-07-29T11:00:38;3.70;;;3.40;;
7807;SDS011;3949;49.254;8.894;2022-07-29T11:03:04;3.97;;;3.45;;
7807;SDS011;3949;49.254;8.894;2022-07-29T11:05:30;3.75;;;3.33;;
7807;SDS011;3949;49.254;8.894;2022-07-29T11:08:17;3.67;;;3.38;;
7807;SDS011;3949;49.254;8.894;2022-07-29T11:10:45;3.60;;;3.30;;
7807;SDS011;3949;49.254;8.894;2022-07-29T11:13:11;4.20;;;3.78;;
7807;SDS011;3949;49.254;8.894;2022-07-29T11:18:19;3.97;;;3.58;;
7807;SDS011;3949;49.254;8.894;2022-07-29T11:20:46;3.53;;;3.25;;
7807;SDS011;3949;49.254;8.894;2022-07-29T11:28:39;4.05;;;3.65;;
7807;SDS011;3949;49.254;8.894;2022-07-29T11:31:08;4.55;;;3.20;;
7807;SDS011;3949;49.254;8.894;2022-07-29T11:33:35;4.38;;;3.92;;
7807;SDS011;3949;49.254;8.894;2022-07-29T11:36:11;4.80;;;3.92;;
7807;SDS011;3949;49.254;8.894;2022-07-29T11:38:37;3.67;;;3.30;;
7807;SDS011;3949;49.254;8.894;2022-07-29T11:43:48;4.15;;;3.83;;
7807;SDS011;3949;49.254;8.894;2022-07-29T11:46:16;4.82;;;4.43;;
7807;SDS011;3949;49.254;8.894;2022-07-29T11:48:43;3.55;;;3.25;;
7807;SDS011;3949;49.254;8.894;2022-07-29T11:51:09;4.07;;;3.40;;
7807;SDS011;3949;49.254;8.894;2022-07-29T11:53:36;4.15;;;3.67;;
7807;SDS011;3949;49.254;8.894;2022-07-29T11:56:02;3.80;;;3.50;;
7807;SDS011;3949;49.254;8.894;2022-07-29T11:58:29;3.55;;;3.35;;
7807;SDS011;3949;49.254;8.894;2022-07-29T12:00:55;3.47;;;3.13;;
7807;SDS011;3949;49.254;8.894;2022-07-29T12:03:24;3.72;;;3.42;;
7807;SDS011;3949;49.254;8.894;2022-07-29T12:05:50;3.47;;;3.28;;
7807;SDS011;3949;49.254;8.894;2022-07-29T12:08:20;3.83;;;3.53;;
7807;SDS011;3949;49.254;8.894;2022-07-29T12:10:47;4.55;;;3.30;;
7807;SDS011;3949;49.254;8.894;2022-07-29T12:13:14;4.00;;;3.20;;
7807;SDS011;3949;49.254;8.894;2022-07-29T12:15:41;4.68;;;3.38;;
7807;SDS011;3949;49.254;8.894;2022-07-29T12:18:13;3.53;;;3.20;;
7807;SDS011;3949;49.254;8.894;2022-07-29T12:20:39;3.85;;;3.45;;
7807;SDS011;3949;49.254;8.894;2022-07-29T12:23:06;3.20;;;3.00;;
7807;SDS011;3949;49.254;8.894;2022-07-29T12:25:34;3.92;;;3.38;;
7807;SDS011;3949;49.254;8.894;2022-07-29T12:28:06;3.80;;;3.35;;
7807;SDS011;3949;49.254;8.894;2022-07-29T12:30:50;4.35;;;3.20;;
7807;SDS011;3949;49.254;8.894;2022-07-29T12:33:27;3.55;;;3.25;;
7807;SDS011;3949;49.254;8.894;2022-07-29T12:35:55;4.43;;;3.40;;
7807;SDS011;3949;49.254;8.894;2022-07-29T12:38:22;3.85;;;3.38;;
7807;SDS011;3949;49.254;8.894;2022-07-29T12:40:49;4.65;;;3.42;;
7807;SDS011;3949;49.254;8.894;2022-07-29T12:43:16;3.90;;;3.47;;
7807;SDS011;3949;49.254;8.894;2022-07-29T12:45:44;5.25;;;3.28;;
7807;SDS011;3949;49.254;8.894;2022-07-29T12:48:10;5.05;;;3.20;;
7807;SDS011;3949;49.254;8.894;2022-07-29T12:50:51;4.93;;;3.47;;
7807;SDS011;3949;49.254;8.894;2022-07-29T12:53:17;3.58;;;3.20;;
7807;SDS011;3949;49.254;8.894;2022-07-29T12:55:45;3.72;;;3.42;;
7807;SDS011;3949;49.254;8.894;2022-07-29T12:58:14;5.25;;;3.40;;
7807;SDS011;3949;49.254;8.894;2022-07-29T13:00:40;4.03;;;3.22;;
7807;SDS011;3949;49.254;8.894;2022-07-29T13:03:07;6.22;;;3.03;;
7807;SDS011;3949;49.254;8.894;2022-07-29T13:05:40;3.30;;;3.00;;
7807;SDS011;3949;49.254;8.894;2022-07-29T13:08:13;3.92;;;2.70;;
7807;SDS011;3949;49.254;8.894;2022-07-29T13:10:40;3.55;;;2.92;;
7807;SDS011;3949;49.254;8.894;2022-07-29T13:13:07;4.22;;;3.20;;
7807;SDS011;3949;49.254;8.894;2022-07-29T13:15:38;6.38;;;3.20;;
7807;SDS011;3949;49.254;8.894;2022-07-29T13:18:06;3.85;;;3.33;;
7807;SDS011;3949;49.254;8.894;2022-07-29T13:20:51;2.90;;;2.70;;
7807;SDS011;3949;49.254;8.894;2022-07-29T13:23:17;3.72;;;3.22;;
7807;SDS011;3949;49.254;8.894;2022-07-29T13:25:43;3.13;;;2.80;;
7807;SDS011;3949;49.254;8.894;2022-07-29T13:28:09;4.07;;;3.13;;
7807;SDS011;3949;49.254;8.894;2022-07-29T13:30:36;3.83;;;2.60;;
7807;SDS011;3949;49.254;8.894;2022-07-29T13:33:02;4.15;;;3.00;;
7807;SDS011;3949;49.254;8.894;2022-07-29T13:35:29;3.53;;;2.92;;
7807;SDS011;3949;49.254;8.894;2022-07-29T13:37:55;3.65;;;3.35;;
7807;SDS011;3949;49.254;8.894;2022-07-29T13:40:21;4.05;;;3.20;;
7807;SDS011;3949;49.254;8.894;2022-07-29T13:42:47;3.58;;;3.28;;
7807;SDS011;3949;49.254;8.894;2022-07-29T13:45:13;3.65;;;3.35;;
7807;SDS011;3949;49.254;8.894;2022-07-29T13:47:39;3.58;;;2.75;;
7807;SDS011;3949;49.254;8.894;2022-07-29T13:50:06;3.53;;;3.22;;
7807;SDS011;3949;49.254;8.894;2022-07-29T13:52:34;3.72;;;3.13;;
7807;SDS011;3949;49.254;8.894;2022-07-29T13:55:01;3.47;;;3.17;;
7807;SDS011;3949;49.254;8.894;2022-07-29T13:57:27;3.40;;;2.88;;
7807;SDS011;3949;49.254;8.894;2022-07-29T13:59:53;4.40;;;3.15;;
7807;SDS011;3949;49.254;8.894;2022-07-29T14:02:19;3.78;;;3.00;;
7807;SDS011;3949;49.254;8.894;2022-07-29T14:04:46;3.15;;;2.85;;
7807;SDS011;3949;49.254;8.894;2022-07-29T14:07:12;3.22;;;2.97;;
7807;SDS011;3949;49.254;8.894;2022-07-29T14:09:38;4.15;;;3.10;;
7807;SDS011;3949;49.254;8.894;2022-07-29T14:12:04;3.30;;;2.83;;
7807;SDS011;3949;49.254;8.894;2022-07-29T14:14:30;3.65;;;2.70;;
7807;SDS011;3949;49.254;8.894;2022-07-29T14:16:57;3.15;;;2.85;;
7807;SDS011;3949;49.254;8.894;2022-07-29T14:19:23;3.70;;;2.80;;
7807;SDS011;3949;49.254;8.894;2022-07-29T14:21:49;3.35;;;3.03;;
7807;SDS011;3949;49.254;8.894;2022-07-29T14:24:15;3.47;;;2.88;;
7807;SDS011;3949;49.254;8.894;2022-07-29T14:26:41;3.30;;;3.00;;
7807;SDS011;3949;49.254;8.894;2022-07-29T14:29:07;4.00;;;2.60;;
7807;SDS011;3949;49.254;8.894;2022-07-29T14:31:33;3.28;;;2.83;;
7807;SDS011;3949;49.254;8.894;2022-07-29T14:33:59;3.28;;;2.97;;
7807;SDS011;3949;49.254;8.894;2022-07-29T14:36:25;3.08;;;2.72;;
7807;SDS011;3949;49.254;8.894;2022-07-29T14:38:52;3.72;;;2.50;;
7807;SDS011;3949;49.254;8.894;2022-07-29T14:41:18;3.17;;;2.78;;
7807;SDS011;3949;49.254;8.894;2022-07-29T14:43:44;3.45;;;2.42;;
7807;SDS011;3949;49.254;8.894;2022-07-29T14:46:10;2.83;;;2.30;;
7807;SDS011;3949;49.254;8.894;2022-07-29T14:48:36;3.90;;;2.70;;
7807;SDS011;3949;49.254;8.894;2022-07-29T14:51:02;2.67;;;2.47;;
7807;SDS011;3949;49.254;8.894;2022-07-29T14:53:28;2.80;;;2.55;;
7807;SDS011;3949;49.254;8.894;2022-07-29T14:55:54;4.35;;;2.63;;
7807;SDS011;3949;49.254;8.894;2022-07-29T14:58:20;4.90;;;2.70;;
7807;SDS011;3949;49.254;8.894;2022-07-29T15:00:47;2.70;;;2.50;;
7807;SDS011;3949;49.254;8.894;2022-07-29T15:03:13;2.85;;;2.58;;
7807;SDS011;3949;49.254;8.894;2022-07-29T15:05:39;2.78;;;2.58;;
7807;SDS011;3949;49.254;8.894;2022-07-29T15:08:05;2.40;;;2.20;;
7807;SDS011;3949;49.254;8.894;2022-07-29T15:10:33;3.88;;;2.47;;
7807;SDS011;3949;49.254;8.894;2022-07-29T15:12:59;3.45;;;2.20;;
7807;SDS011;3949;49.254;8.894;2022-07-29T15:15:25;2.30;;;2.10;;
7807;SDS011;3949;49.254;8.894;2022-07-29T15:17:51;3.17;;;2.40;;
7807;SDS011;3949;49.254;8.894;2022-07-29T15:20:17;3.88;;;2.25;;
7807;SDS011;3949;49.254;8.894;2022-07-29T15:22:43;3.25;;;2.20;;
7807;SDS011;3949;49.254;8.894;2022-07-29T15:25:09;2.33;;;2.10;;
7807;SDS011;3949;49.254;8.894;2022-07-29T15:27:35;2.05;;;1.95;;
7807;SDS011;3949;49.254;8.894;2022-07-29T15:30:01;2.30;;;2.10;;
7807;SDS011;3949;49.254;8.894;2022-07-29T15:32:27;3.10;;;2.38;;
7807;SDS011;3949;49.254;8.894;2022-07-29T15:34:53;2.50;;;2.30;;
7807;SDS011;3949;49.254;8.894;2022-07-29T15:37:19;4.15;;;2.00;;
7807;SDS011;3949;49.254;8.894;2022-07-29T15:39:45;2.63;;;2.30;;
7807;SDS011;3949;49.254;8.894;2022-07-29T15:42:11;1.90;;;1.80;;
7807;SDS011;3949;49.254;8.894;2022-07-29T15:44:37;3.30;;;2.28;;
7807;SDS011;3949;49.254;8.894;2022-07-29T15:47:03;2.20;;;2.00;;
7807;SDS011;3949;49.254;8.894;2022-07-29T15:49:34;2.40;;;2.20;;
7807;SDS011;3949;49.254;8.894;2022-07-29T15:52:01;2.40;;;2.20;;